sensor_id;sensor_type;location;lat;lon;timestamp;temperature;humidity
20284;DHT22;10301;50.832;4.080;2024-01-30T00:02:21;10.50;70.20
20284;DHT22;10301;50.832;4.080;2024-01-30T00:04:47;10.60;56.30
20284;DHT22;10301;50.832;4.080;2024-01-30T00:07:12;10.60;55.30
20284;DHT22;10301;50.832;4.080;2024-01-30T00:09:38;10.50;55.90
20284;DHT22;10301;50.832;4.080;2024-01-30T00:12:05;10.50;62.80
20284;DHT22;10301;50.832;4.080;2024-01-30T00:14:32;10.50;62.90
20284;DHT22;10301;50.832;4.080;2024-01-30T00:16:57;10.70;55.60
20284;DHT22;10301;50.832;4.080;2024-01-30T00:19:23;10.60;45.90
20284;DHT22;10301;50.832;4.080;2024-01-30T00:21:49;10.50;56.10
20284;DHT22;10301;50.832;4.080;2024-01-30T00:24:14;10.50;58.80
20284;DHT22;10301;50.832;4.080;2024-01-30T00:26:40;10.50;60.00
20284;DHT22;10301;50.832;4.080;2024-01-30T00:29:06;10.60;58.40
20284;DHT22;10301;50.832;4.080;2024-01-30T00:31:31;10.50;59.70
20284;DHT22;10301;50.832;4.080;2024-01-30T00:33:57;10.50;57.70
20284;DHT22;10301;50.832;4.080;2024-01-30T00:36:23;10.60;56.40
20284;DHT22;10301;50.832;4.080;2024-01-30T00:38:49;10.60;49.80
20284;DHT22;10301;50.832;4.080;2024-01-30T00:41:15;10.70;55.50
20284;DHT22;10301;50.832;4.080;2024-01-30T00:43:42;10.60;52.00
20284;DHT22;10301;50.832;4.080;2024-01-30T00:46:08;10.60;56.80
20284;DHT22;10301;50.832;4.080;2024-01-30T00:48:34;10.50;59.40
20284;DHT22;10301;50.832;4.080;2024-01-30T00:50:59;10.50;65.10
20284;DHT22;10301;50.832;4.080;2024-01-30T00:53:25;10.40;66.60
20284;DHT22;10301;50.832;4.080;2024-01-30T00:55:51;10.40;69.20
20284;DHT22;10301;50.832;4.080;2024-01-30T00:58:17;10.40;71.70
20284;DHT22;10301;50.832;4.080;2024-01-30T01:00:45;10.40;75.00
20284;DHT22;10301;50.832;4.080;2024-01-30T01:03:10;10.40;74.10
20284;DHT22;10301;50.832;4.080;2024-01-30T01:05:36;10.40;75.30
20284;DHT22;10301;50.832;4.080;2024-01-30T01:08:02;10.40;75.50
20284;DHT22;10301;50.832;4.080;2024-01-30T01:10:27;10.30;77.90
20284;DHT22;10301;50.832;4.080;2024-01-30T01:12:54;10.30;78.50
20284;DHT22;10301;50.832;4.080;2024-01-30T01:15:19;10.30;83.50
20284;DHT22;10301;50.832;4.080;2024-01-30T01:17:45;10.20;86.70
20284;DHT22;10301;50.832;4.080;2024-01-30T01:20:11;10.20;85.10
20284;DHT22;10301;50.832;4.080;2024-01-30T01:22:37;10.20;88.60
20284;DHT22;10301;50.832;4.080;2024-01-30T01:25:04;10.20;86.50
20284;DHT22;10301;50.832;4.080;2024-01-30T01:27:32;10.20;89.90
20284;DHT22;10301;50.832;4.080;2024-01-30T01:29:59;10.20;90.10
20284;DHT22;10301;50.832;4.080;2024-01-30T01:32:25;10.20;90.30
20284;DHT22;10301;50.832;4.080;2024-01-30T01:34:51;10.30;85.50
20284;DHT22;10301;50.832;4.080;2024-01-30T01:37:17;10.30;83.90
20284;DHT22;10301;50.832;4.080;2024-01-30T01:39:43;10.30;84.40
20284;DHT22;10301;50.832;4.080;2024-01-30T01:42:09;10.20;88.00
20284;DHT22;10301;50.832;4.080;2024-01-30T01:44:37;10.20;90.10
20284;DHT22;10301;50.832;4.080;2024-01-30T01:47:03;10.20;90.10
20284;DHT22;10301;50.832;4.080;2024-01-30T01:49:29;10.30;90.90
20284;DHT22;10301;50.832;4.080;2024-01-30T01:51:55;10.20;88.10
20284;DHT22;10301;50.832;4.080;2024-01-30T01:54:22;10.30;92.20
20284;DHT22;10301;50.832;4.080;2024-01-30T01:56:49;10.30;91.60
20284;DHT22;10301;50.832;4.080;2024-01-30T01:59:15;10.20;91.40
20284;DHT22;10301;50.832;4.080;2024-01-30T02:01:41;10.20;93.20
20284;DHT22;10301;50.832;4.080;2024-01-30T02:04:08;10.20;94.50
20284;DHT22;10301;50.832;4.080;2024-01-30T02:06:35;10.20;94.70
20284;DHT22;10301;50.832;4.080;2024-01-30T02:09:01;10.20;95.30
20284;DHT22;10301;50.832;4.080;2024-01-30T02:11:27;10.20;95.40
20284;DHT22;10301;50.832;4.080;2024-01-30T02:13:53;10.30;95.20
20284;DHT22;10301;50.832;4.080;2024-01-30T02:16:19;10.30;94.60
20284;DHT22;10301;50.832;4.080;2024-01-30T02:18:45;10.40;93.70
20284;DHT22;10301;50.832;4.080;2024-01-30T02:21:16;10.50;91.90
20284;DHT22;10301;50.832;4.080;2024-01-30T02:23:47;10.50;84.20
20284;DHT22;10301;50.832;4.080;2024-01-30T02:26:14;10.60;80.30
20284;DHT22;10301;50.832;4.080;2024-01-30T02:28:39;10.60;77.00
20284;DHT22;10301;50.832;4.080;2024-01-30T02:31:05;10.60;78.00
20284;DHT22;10301;50.832;4.080;2024-01-30T02:33:31;10.60;87.10
20284;DHT22;10301;50.832;4.080;2024-01-30T02:35:57;10.70;73.60
20284;DHT22;10301;50.832;4.080;2024-01-30T02:38:23;10.70;69.40
20284;DHT22;10301;50.832;4.080;2024-01-30T02:40:49;10.80;72.30
20284;DHT22;10301;50.832;4.080;2024-01-30T02:43:16;10.70;65.10
20284;DHT22;10301;50.832;4.080;2024-01-30T02:45:41;10.70;68.20
20284;DHT22;10301;50.832;4.080;2024-01-30T02:48:07;10.60;75.20
20284;DHT22;10301;50.832;4.080;2024-01-30T02:50:33;10.50;79.20
20284;DHT22;10301;50.832;4.080;2024-01-30T02:52:58;10.40;85.40
20284;DHT22;10301;50.832;4.080;2024-01-30T02:55:24;10.50;91.90
20284;DHT22;10301;50.832;4.080;2024-01-30T02:57:49;10.50;88.20
20284;DHT22;10301;50.832;4.080;2024-01-30T03:00:15;10.50;90.50
20284;DHT22;10301;50.832;4.080;2024-01-30T03:02:41;10.50;83.90
20284;DHT22;10301;50.832;4.080;2024-01-30T03:05:08;10.50;87.60
20284;DHT22;10301;50.832;4.080;2024-01-30T03:07:33;10.40;89.20
20284;DHT22;10301;50.832;4.080;2024-01-30T03:09:59;10.50;90.50
20284;DHT22;10301;50.832;4.080;2024-01-30T03:12:25;10.50;91.10
20284;DHT22;10301;50.832;4.080;2024-01-30T03:14:50;10.50;88.00
20284;DHT22;10301;50.832;4.080;2024-01-30T03:17:17;10.70;82.70
20284;DHT22;10301;50.832;4.080;2024-01-30T03:19:42;10.70;64.10
20284;DHT22;10301;50.832;4.080;2024-01-30T03:22:08;10.70;62.40
20284;DHT22;10301;50.832;4.080;2024-01-30T03:24:34;10.50;71.90
20284;DHT22;10301;50.832;4.080;2024-01-30T03:26:59;10.40;79.40
20284;DHT22;10301;50.832;4.080;2024-01-30T03:29:25;10.40;87.50
20284;DHT22;10301;50.832;4.080;2024-01-30T03:31:51;10.30;84.60
20284;DHT22;10301;50.832;4.080;2024-01-30T03:34:16;10.30;91.80
20284;DHT22;10301;50.832;4.080;2024-01-30T03:36:42;10.20;91.30
20284;DHT22;10301;50.832;4.080;2024-01-30T03:39:08;10.20;95.30
20284;DHT22;10301;50.832;4.080;2024-01-30T03:41:33;10.10;97.00
20284;DHT22;10301;50.832;4.080;2024-01-30T03:43:59;10.20;97.10
20284;DHT22;10301;50.832;4.080;2024-01-30T03:46:25;10.20;97.00
20284;DHT22;10301;50.832;4.080;2024-01-30T03:48:50;10.10;97.70
20284;DHT22;10301;50.832;4.080;2024-01-30T03:51:16;10.10;98.00
20284;DHT22;10301;50.832;4.080;2024-01-30T03:53:43;10.10;97.60
20284;DHT22;10301;50.832;4.080;2024-01-30T03:56:09;10.10;97.30
20284;DHT22;10301;50.832;4.080;2024-01-30T03:58:34;10.10;97.20
20284;DHT22;10301;50.832;4.080;2024-01-30T04:01:00;10.10;98.10
20284;DHT22;10301;50.832;4.080;2024-01-30T04:03:26;10.00;98.60
20284;DHT22;10301;50.832;4.080;2024-01-30T04:05:52;10.10;99.90
20284;DHT22;10301;50.832;4.080;2024-01-30T04:08:18;10.10;98.10
20284;DHT22;10301;50.832;4.080;2024-01-30T04:10:44;10.10;95.80
20284;DHT22;10301;50.832;4.080;2024-01-30T04:13:10;10.00;98.10
20284;DHT22;10301;50.832;4.080;2024-01-30T04:15:35;9.90;99.30
20284;DHT22;10301;50.832;4.080;2024-01-30T04:18:01;9.90;99.90
20284;DHT22;10301;50.832;4.080;2024-01-30T04:20:27;9.90;99.90
20284;DHT22;10301;50.832;4.080;2024-01-30T04:22:53;9.90;99.90
20284;DHT22;10301;50.832;4.080;2024-01-30T04:25:18;9.90;99.90
20284;DHT22;10301;50.832;4.080;2024-01-30T04:27:44;9.90;99.90
20284;DHT22;10301;50.832;4.080;2024-01-30T04:30:10;9.90;99.90
20284;DHT22;10301;50.832;4.080;2024-01-30T04:32:36;9.90;99.90
20284;DHT22;10301;50.832;4.080;2024-01-30T04:35:02;10.00;99.90
20284;DHT22;10301;50.832;4.080;2024-01-30T04:37:28;10.00;99.90
20284;DHT22;10301;50.832;4.080;2024-01-30T04:39:54;10.10;98.30
20284;DHT22;10301;50.832;4.080;2024-01-30T04:42:20;10.00;97.70
20284;DHT22;10301;50.832;4.080;2024-01-30T04:44:45;10.10;96.90
20284;DHT22;10301;50.832;4.080;2024-01-30T04:47:11;10.10;95.80
20284;DHT22;10301;50.832;4.080;2024-01-30T04:49:40;10.20;95.70
20284;DHT22;10301;50.832;4.080;2024-01-30T04:52:06;10.30;92.00
20284;DHT22;10301;50.832;4.080;2024-01-30T04:54:33;10.40;80.50
20284;DHT22;10301;50.832;4.080;2024-01-30T04:57:00;10.30;78.50
20284;DHT22;10301;50.832;4.080;2024-01-30T04:59:25;10.40;84.20
20284;DHT22;10301;50.832;4.080;2024-01-30T05:01:51;10.30;73.70
20284;DHT22;10301;50.832;4.080;2024-01-30T05:04:17;10.40;77.50
20284;DHT22;10301;50.832;4.080;2024-01-30T05:06:43;10.30;73.90
20284;DHT22;10301;50.832;4.080;2024-01-30T05:09:09;10.30;81.60
20284;DHT22;10301;50.832;4.080;2024-01-30T05:11:41;10.30;80.30
20284;DHT22;10301;50.832;4.080;2024-01-30T05:14:07;10.30;78.50
20284;DHT22;10301;50.832;4.080;2024-01-30T05:16:34;10.20;88.50
20284;DHT22;10301;50.832;4.080;2024-01-30T05:19:00;10.20;92.60
20284;DHT22;10301;50.832;4.080;2024-01-30T05:21:26;10.10;91.80
20284;DHT22;10301;50.832;4.080;2024-01-30T05:23:51;10.20;91.80
20284;DHT22;10301;50.832;4.080;2024-01-30T05:26:17;10.20;89.90
20284;DHT22;10301;50.832;4.080;2024-01-30T05:28:43;10.20;91.90
20284;DHT22;10301;50.832;4.080;2024-01-30T05:31:10;10.10;95.20
20284;DHT22;10301;50.832;4.080;2024-01-30T05:33:36;10.00;96.40
20284;DHT22;10301;50.832;4.080;2024-01-30T05:36:02;10.00;96.90
20284;DHT22;10301;50.832;4.080;2024-01-30T05:38:31;10.10;97.40
20284;DHT22;10301;50.832;4.080;2024-01-30T05:40:57;10.00;97.90
20284;DHT22;10301;50.832;4.080;2024-01-30T05:43:25;10.00;99.90
20284;DHT22;10301;50.832;4.080;2024-01-30T05:45:52;10.00;99.90
20284;DHT22;10301;50.832;4.080;2024-01-30T05:48:18;9.90;99.90
20284;DHT22;10301;50.832;4.080;2024-01-30T05:50:43;10.00;97.50
20284;DHT22;10301;50.832;4.080;2024-01-30T05:53:10;10.00;98.60
20284;DHT22;10301;50.832;4.080;2024-01-30T05:55:36;10.00;99.90
20284;DHT22;10301;50.832;4.080;2024-01-30T05:58:02;10.00;99.90
20284;DHT22;10301;50.832;4.080;2024-01-30T06:00:28;9.90;99.90
20284;DHT22;10301;50.832;4.080;2024-01-30T06:02:53;9.90;99.90
20284;DHT22;10301;50.832;4.080;2024-01-30T06:05:19;10.00;99.90
20284;DHT22;10301;50.832;4.080;2024-01-30T06:07:44;10.00;98.60
20284;DHT22;10301;50.832;4.080;2024-01-30T06:10:10;10.00;99.90
20284;DHT22;10301;50.832;4.080;2024-01-30T06:12:36;10.10;99.90
20284;DHT22;10301;50.832;4.080;2024-01-30T06:15:02;10.00;99.90
20284;DHT22;10301;50.832;4.080;2024-01-30T06:17:28;10.10;99.90
20284;DHT22;10301;50.832;4.080;2024-01-30T06:19:54;10.30;97.00
20284;DHT22;10301;50.832;4.080;2024-01-30T06:22:20;10.20;97.10
20284;DHT22;10301;50.832;4.080;2024-01-30T06:24:46;10.20;96.50
20284;DHT22;10301;50.832;4.080;2024-01-30T06:27:14;10.20;96.40
20284;DHT22;10301;50.832;4.080;2024-01-30T06:29:40;10.20;96.50
20284;DHT22;10301;50.832;4.080;2024-01-30T06:32:06;10.20;97.40
20284;DHT22;10301;50.832;4.080;2024-01-30T06:34:32;10.20;99.90
20284;DHT22;10301;50.832;4.080;2024-01-30T06:36:57;10.30;99.90
20284;DHT22;10301;50.832;4.080;2024-01-30T06:39:23;10.20;99.30
20284;DHT22;10301;50.832;4.080;2024-01-30T06:41:49;10.30;97.70
20284;DHT22;10301;50.832;4.080;2024-01-30T06:44:15;10.30;96.70
20284;DHT22;10301;50.832;4.080;2024-01-30T06:46:40;10.30;97.00
20284;DHT22;10301;50.832;4.080;2024-01-30T06:49:06;10.30;98.00
20284;DHT22;10301;50.832;4.080;2024-01-30T06:51:32;10.20;98.20
20284;DHT22;10301;50.832;4.080;2024-01-30T06:53:57;10.30;99.50
20284;DHT22;10301;50.832;4.080;2024-01-30T06:56:23;10.30;99.10
20284;DHT22;10301;50.832;4.080;2024-01-30T06:58:49;10.40;98.80
20284;DHT22;10301;50.832;4.080;2024-01-30T07:01:15;10.40;96.50
20284;DHT22;10301;50.832;4.080;2024-01-30T07:03:41;10.50;93.60
20284;DHT22;10301;50.832;4.080;2024-01-30T07:06:07;10.60;92.50
20284;DHT22;10301;50.832;4.080;2024-01-30T07:08:33;10.90;76.40
20284;DHT22;10301;50.832;4.080;2024-01-30T07:10:59;10.90;65.40
20284;DHT22;10301;50.832;4.080;2024-01-30T07:13:25;10.70;69.40
20284;DHT22;10301;50.832;4.080;2024-01-30T07:15:50;10.70;77.20
20284;DHT22;10301;50.832;4.080;2024-01-30T07:18:16;10.70;86.70
20284;DHT22;10301;50.832;4.080;2024-01-30T07:20:42;10.80;76.10
20284;DHT22;10301;50.832;4.080;2024-01-30T07:23:12;10.70;80.50
20284;DHT22;10301;50.832;4.080;2024-01-30T07:25:40;10.70;85.20
20284;DHT22;10301;50.832;4.080;2024-01-30T07:28:07;10.70;83.20
20284;DHT22;10301;50.832;4.080;2024-01-30T07:30:34;11.00;71.80
20284;DHT22;10301;50.832;4.080;2024-01-30T07:33:00;11.00;65.10
20284;DHT22;10301;50.832;4.080;2024-01-30T07:35:26;11.00;65.60
20284;DHT22;10301;50.832;4.080;2024-01-30T07:37:51;10.80;69.60
20284;DHT22;10301;50.832;4.080;2024-01-30T07:40:17;10.80;79.00
20284;DHT22;10301;50.832;4.080;2024-01-30T07:42:43;10.80;85.60
20284;DHT22;10301;50.832;4.080;2024-01-30T07:45:09;10.80;87.60
20284;DHT22;10301;50.832;4.080;2024-01-30T07:47:34;10.80;91.90
20284;DHT22;10301;50.832;4.080;2024-01-30T07:50:00;10.90;87.30
20284;DHT22;10301;50.832;4.080;2024-01-30T07:52:26;10.90;88.30
20284;DHT22;10301;50.832;4.080;2024-01-30T07:54:51;10.80;91.80
20284;DHT22;10301;50.832;4.080;2024-01-30T07:57:18;10.80;95.90
20284;DHT22;10301;50.832;4.080;2024-01-30T07:59:44;10.80;96.10
20284;DHT22;10301;50.832;4.080;2024-01-30T08:02:11;10.80;96.70
20284;DHT22;10301;50.832;4.080;2024-01-30T08:04:37;10.90;95.80
20284;DHT22;10301;50.832;4.080;2024-01-30T08:07:03;10.80;95.20
20284;DHT22;10301;50.832;4.080;2024-01-30T08:09:29;10.80;96.00
20284;DHT22;10301;50.832;4.080;2024-01-30T08:11:54;10.80;97.30
20284;DHT22;10301;50.832;4.080;2024-01-30T08:14:20;10.90;96.10
20284;DHT22;10301;50.832;4.080;2024-01-30T08:16:46;11.00;97.50
20284;DHT22;10301;50.832;4.080;2024-01-30T08:19:11;11.00;94.20
20284;DHT22;10301;50.832;4.080;2024-01-30T08:21:37;11.00;93.90
20284;DHT22;10301;50.832;4.080;2024-01-30T08:24:04;11.00;95.30
20284;DHT22;10301;50.832;4.080;2024-01-30T08:26:30;11.00;92.80
20284;DHT22;10301;50.832;4.080;2024-01-30T08:28:56;11.00;94.40
20284;DHT22;10301;50.832;4.080;2024-01-30T08:31:22;11.00;94.10
20284;DHT22;10301;50.832;4.080;2024-01-30T08:33:47;11.00;95.00
20284;DHT22;10301;50.832;4.080;2024-01-30T08:36:13;11.10;93.90
20284;DHT22;10301;50.832;4.080;2024-01-30T08:38:39;11.10;91.90
20284;DHT22;10301;50.832;4.080;2024-01-30T08:41:04;11.10;92.00
20284;DHT22;10301;50.832;4.080;2024-01-30T08:43:30;11.20;91.70
20284;DHT22;10301;50.832;4.080;2024-01-30T08:45:59;11.20;92.50
20284;DHT22;10301;50.832;4.080;2024-01-30T08:48:25;11.30;92.30
20284;DHT22;10301;50.832;4.080;2024-01-30T08:50:51;11.50;84.10
20284;DHT22;10301;50.832;4.080;2024-01-30T08:53:17;11.50;77.00
20284;DHT22;10301;50.832;4.080;2024-01-30T08:55:42;11.60;75.00
20284;DHT22;10301;50.832;4.080;2024-01-30T08:58:08;11.80;58.90
20284;DHT22;10301;50.832;4.080;2024-01-30T09:00:34;11.80;50.00
20284;DHT22;10301;50.832;4.080;2024-01-30T09:02:59;11.60;65.20
20284;DHT22;10301;50.832;4.080;2024-01-30T09:05:25;11.80;71.10
20284;DHT22;10301;50.832;4.080;2024-01-30T09:07:50;11.70;71.40
20284;DHT22;10301;50.832;4.080;2024-01-30T09:10:16;11.90;61.10
20284;DHT22;10301;50.832;4.080;2024-01-30T09:12:42;12.00;49.00
20284;DHT22;10301;50.832;4.080;2024-01-30T09:15:08;12.00;50.50
20284;DHT22;10301;50.832;4.080;2024-01-30T09:17:33;12.00;53.40
20284;DHT22;10301;50.832;4.080;2024-01-30T09:19:59;12.10;54.20
20284;DHT22;10301;50.832;4.080;2024-01-30T09:22:25;12.10;55.80
20284;DHT22;10301;50.832;4.080;2024-01-30T09:24:51;12.20;54.60
20284;DHT22;10301;50.832;4.080;2024-01-30T09:27:16;12.30;50.60
20284;DHT22;10301;50.832;4.080;2024-01-30T09:29:42;12.10;50.00
20284;DHT22;10301;50.832;4.080;2024-01-30T09:32:07;11.90;73.60
20284;DHT22;10301;50.832;4.080;2024-01-30T09:34:34;11.90;71.80
20284;DHT22;10301;50.832;4.080;2024-01-30T09:37:00;11.90;87.30
20284;DHT22;10301;50.832;4.080;2024-01-30T09:39:26;12.00;77.00
20284;DHT22;10301;50.832;4.080;2024-01-30T09:42:26;11.90;79.50
20284;DHT22;10301;50.832;4.080;2024-01-30T09:44:53;11.90;89.50
20284;DHT22;10301;50.832;4.080;2024-01-30T09:47:19;11.80;88.50
20284;DHT22;10301;50.832;4.080;2024-01-30T09:49:45;11.80;87.70
20284;DHT22;10301;50.832;4.080;2024-01-30T09:52:12;11.90;85.60
20284;DHT22;10301;50.832;4.080;2024-01-30T09:54:38;11.90;90.00
20284;DHT22;10301;50.832;4.080;2024-01-30T09:57:04;11.80;91.00
20284;DHT22;10301;50.832;4.080;2024-01-30T09:59:31;11.80;93.20
20284;DHT22;10301;50.832;4.080;2024-01-30T10:01:57;11.90;91.10
20284;DHT22;10301;50.832;4.080;2024-01-30T10:04:23;12.00;90.80
20284;DHT22;10301;50.832;4.080;2024-01-30T10:06:48;12.20;72.60
20284;DHT22;10301;50.832;4.080;2024-01-30T10:09:14;12.30;61.60
20284;DHT22;10301;50.832;4.080;2024-01-30T10:11:40;12.20;58.70
20284;DHT22;10301;50.832;4.080;2024-01-30T10:14:06;12.20;64.80
20284;DHT22;10301;50.832;4.080;2024-01-30T10:16:31;12.10;63.90
20284;DHT22;10301;50.832;4.080;2024-01-30T10:18:57;12.20;66.00
20284;DHT22;10301;50.832;4.080;2024-01-30T10:21:23;12.30;64.10
20284;DHT22;10301;50.832;4.080;2024-01-30T10:23:49;12.40;51.80
20284;DHT22;10301;50.832;4.080;2024-01-30T10:26:16;12.50;48.90
20284;DHT22;10301;50.832;4.080;2024-01-30T10:28:43;12.40;41.10
20284;DHT22;10301;50.832;4.080;2024-01-30T10:31:08;12.30;35.30
20284;DHT22;10301;50.832;4.080;2024-01-30T10:33:34;12.30;33.00
20284;DHT22;10301;50.832;4.080;2024-01-30T10:36:01;12.10;28.30
20284;DHT22;10301;50.832;4.080;2024-01-30T10:38:31;11.90;10.60
20284;DHT22;10301;50.832;4.080;2024-01-30T10:40:58;11.80;11.30
20284;DHT22;10301;50.832;4.080;2024-01-30T10:43:35;11.80;2.10
20284;DHT22;10301;50.832;4.080;2024-01-30T10:46:21;11.70;1.00
20284;DHT22;10301;50.832;4.080;2024-01-30T10:48:57;11.40;1.00
20284;DHT22;10301;50.832;4.080;2024-01-30T10:51:26;11.50;1.00
20284;DHT22;10301;50.832;4.080;2024-01-30T10:53:52;11.50;1.00
20284;DHT22;10301;50.832;4.080;2024-01-30T10:56:21;11.60;1.00
20284;DHT22;10301;50.832;4.080;2024-01-30T10:58:51;11.70;1.00
20284;DHT22;10301;50.832;4.080;2024-01-30T11:01:19;11.80;1.00
20284;DHT22;10301;50.832;4.080;2024-01-30T11:03:46;11.80;1.00
20284;DHT22;10301;50.832;4.080;2024-01-30T11:06:12;11.70;1.00
20284;DHT22;10301;50.832;4.080;2024-01-30T11:08:40;11.80;1.00
20284;DHT22;10301;50.832;4.080;2024-01-30T11:11:09;11.80;1.00
20284;DHT22;10301;50.832;4.080;2024-01-30T11:13:35;11.70;1.00
20284;DHT22;10301;50.832;4.080;2024-01-30T11:16:05;11.90;1.00
20284;DHT22;10301;50.832;4.080;2024-01-30T11:18:32;12.10;1.00
20284;DHT22;10301;50.832;4.080;2024-01-30T11:20:59;12.20;1.00
20284;DHT22;10301;50.832;4.080;2024-01-30T11:23:26;12.30;1.00
20284;DHT22;10301;50.832;4.080;2024-01-30T11:25:56;12.20;1.00
20284;DHT22;10301;50.832;4.080;2024-01-30T11:28:22;12.20;1.00
20284;DHT22;10301;50.832;4.080;2024-01-30T11:30:48;12.30;1.00
20284;DHT22;10301;50.832;4.080;2024-01-30T11:33:30;12.10;1.00
20284;DHT22;10301;50.832;4.080;2024-01-30T11:35:57;11.90;1.00
20284;DHT22;10301;50.832;4.080;2024-01-30T11:38:26;12.10;1.00
20284;DHT22;10301;50.832;4.080;2024-01-30T11:40:53;12.30;1.00
20284;DHT22;10301;50.832;4.080;2024-01-30T11:43:20;12.10;1.00
20284;DHT22;10301;50.832;4.080;2024-01-30T11:45:45;12.00;1.00
20284;DHT22;10301;50.832;4.080;2024-01-30T11:48:12;12.00;1.00
20284;DHT22;10301;50.832;4.080;2024-01-30T11:50:39;12.00;1.00
20284;DHT22;10301;50.832;4.080;2024-01-30T11:53:05;11.90;1.00
20284;DHT22;10301;50.832;4.080;2024-01-30T11:55:31;11.90;1.00
20284;DHT22;10301;50.832;4.080;2024-01-30T11:57:57;11.90;1.00
20284;DHT22;10301;50.832;4.080;2024-01-30T12:00:23;12.10;1.00
20284;DHT22;10301;50.832;4.080;2024-01-30T12:02:53;12.10;1.00
20284;DHT22;10301;50.832;4.080;2024-01-30T12:05:23;12.00;1.00
20284;DHT22;10301;50.832;4.080;2024-01-30T12:07:48;11.90;1.00
20284;DHT22;10301;50.832;4.080;2024-01-30T12:10:14;11.90;1.00
20284;DHT22;10301;50.832;4.080;2024-01-30T12:12:48;11.80;1.00
20284;DHT22;10301;50.832;4.080;2024-01-30T12:15:15;11.60;1.00
20284;DHT22;10301;50.832;4.080;2024-01-30T12:17:41;11.50;1.00
20284;DHT22;10301;50.832;4.080;2024-01-30T12:20:11;11.50;1.00
20284;DHT22;10301;50.832;4.080;2024-01-30T12:22:44;11.40;1.00
20284;DHT22;10301;50.832;4.080;2024-01-30T12:25:12;11.40;1.00
20284;DHT22;10301;50.832;4.080;2024-01-30T12:27:38;11.40;1.00
20284;DHT22;10301;50.832;4.080;2024-01-30T12:30:11;11.40;1.00
20284;DHT22;10301;50.832;4.080;2024-01-30T12:32:43;11.40;1.00
20284;DHT22;10301;50.832;4.080;2024-01-30T12:35:19;11.20;1.00
20284;DHT22;10301;50.832;4.080;2024-01-30T12:37:46;11.20;1.00
20284;DHT22;10301;50.832;4.080;2024-01-30T12:40:13;11.20;1.00
20284;DHT22;10301;50.832;4.080;2024-01-30T12:42:45;11.20;1.00
20284;DHT22;10301;50.832;4.080;2024-01-30T12:45:14;11.30;1.00
20284;DHT22;10301;50.832;4.080;2024-01-30T12:47:41;11.30;1.00
20284;DHT22;10301;50.832;4.080;2024-01-30T12:50:06;11.40;1.00
20284;DHT22;10301;50.832;4.080;2024-01-30T12:52:32;11.40;1.00
20284;DHT22;10301;50.832;4.080;2024-01-30T12:54:58;11.50;1.00
20284;DHT22;10301;50.832;4.080;2024-01-30T12:57:24;11.60;1.00
20284;DHT22;10301;50.832;4.080;2024-01-30T12:59:49;11.60;1.00
20284;DHT22;10301;50.832;4.080;2024-01-30T13:02:15;11.50;1.00
20284;DHT22;10301;50.832;4.080;2024-01-30T13:04:42;11.50;1.00
20284;DHT22;10301;50.832;4.080;2024-01-30T13:07:07;11.60;1.00
20284;DHT22;10301;50.832;4.080;2024-01-30T13:09:33;11.70;1.00
20284;DHT22;10301;50.832;4.080;2024-01-30T13:11:59;11.70;1.00
20284;DHT22;10301;50.832;4.080;2024-01-30T13:14:27;11.70;1.00
20284;DHT22;10301;50.832;4.080;2024-01-30T13:16:53;11.60;1.00
20284;DHT22;10301;50.832;4.080;2024-01-30T13:19:19;11.80;1.00
20284;DHT22;10301;50.832;4.080;2024-01-30T13:21:44;11.70;1.00
20284;DHT22;10301;50.832;4.080;2024-01-30T13:24:10;11.80;1.00
20284;DHT22;10301;50.832;4.080;2024-01-30T13:26:36;11.70;1.00
20284;DHT22;10301;50.832;4.080;2024-01-30T13:29:02;11.70;1.00
20284;DHT22;10301;50.832;4.080;2024-01-30T13:31:28;11.80;1.00
20284;DHT22;10301;50.832;4.080;2024-01-30T13:33:54;11.80;1.00
20284;DHT22;10301;50.832;4.080;2024-01-30T13:36:20;11.40;1.00
20284;DHT22;10301;50.832;4.080;2024-01-30T13:38:47;11.30;1.00
20284;DHT22;10301;50.832;4.080;2024-01-30T13:41:12;11.50;1.00
20284;DHT22;10301;50.832;4.080;2024-01-30T13:43:38;11.50;1.00
20284;DHT22;10301;50.832;4.080;2024-01-30T13:46:04;11.70;1.00
20284;DHT22;10301;50.832;4.080;2024-01-30T13:48:30;11.70;1.00
20284;DHT22;10301;50.832;4.080;2024-01-30T13:50:56;11.50;1.00
20284;DHT22;10301;50.832;4.080;2024-01-30T13:53:21;11.20;1.00
20284;DHT22;10301;50.832;4.080;2024-01-30T13:55:47;11.10;1.00
20284;DHT22;10301;50.832;4.080;2024-01-30T13:58:13;11.00;1.00
20284;DHT22;10301;50.832;4.080;2024-01-30T14:00:38;11.00;1.00
20284;DHT22;10301;50.832;4.080;2024-01-30T14:03:04;11.00;1.00
20284;DHT22;10301;50.832;4.080;2024-01-30T14:05:30;11.40;1.00
20284;DHT22;10301;50.832;4.080;2024-01-30T14:07:58;11.40;1.00
20284;DHT22;10301;50.832;4.080;2024-01-30T14:10:25;11.60;1.00
20284;DHT22;10301;50.832;4.080;2024-01-30T14:12:50;11.40;1.00
20284;DHT22;10301;50.832;4.080;2024-01-30T14:15:16;11.10;1.00
20284;DHT22;10301;50.832;4.080;2024-01-30T14:17:45;11.00;1.00
20284;DHT22;10301;50.832;4.080;2024-01-30T14:20:14;11.20;1.00
20284;DHT22;10301;50.832;4.080;2024-01-30T14:22:39;11.10;1.00
20284;DHT22;10301;50.832;4.080;2024-01-30T14:25:05;11.20;1.00
20284;DHT22;10301;50.832;4.080;2024-01-30T14:27:31;11.30;1.00
20284;DHT22;10301;50.832;4.080;2024-01-30T14:29:58;11.30;1.00
20284;DHT22;10301;50.832;4.080;2024-01-30T14:32:24;11.40;1.00
20284;DHT22;10301;50.832;4.080;2024-01-30T14:34:51;11.30;1.00
20284;DHT22;10301;50.832;4.080;2024-01-30T14:37:18;11.00;1.00
20284;DHT22;10301;50.832;4.080;2024-01-30T14:39:44;10.90;1.00
20284;DHT22;10301;50.832;4.080;2024-01-30T14:42:09;10.80;1.00
20284;DHT22;10301;50.832;4.080;2024-01-30T14:44:35;10.80;1.00
20284;DHT22;10301;50.832;4.080;2024-01-30T14:47:01;10.90;1.00
20284;DHT22;10301;50.832;4.080;2024-01-30T14:49:28;10.70;1.00
20284;DHT22;10301;50.832;4.080;2024-01-30T14:51:53;10.60;1.00
20284;DHT22;10301;50.832;4.080;2024-01-30T14:54:19;10.60;1.00
20284;DHT22;10301;50.832;4.080;2024-01-30T14:56:45;10.50;1.00
20284;DHT22;10301;50.832;4.080;2024-01-30T14:59:11;10.60;1.00
20284;DHT22;10301;50.832;4.080;2024-01-30T15:01:37;10.50;1.00
20284;DHT22;10301;50.832;4.080;2024-01-30T15:04:02;10.50;1.00
20284;DHT22;10301;50.832;4.080;2024-01-30T15:06:28;10.50;1.00
20284;DHT22;10301;50.832;4.080;2024-01-30T15:08:54;10.30;1.00
20284;DHT22;10301;50.832;4.080;2024-01-30T15:11:20;10.30;1.00
20284;DHT22;10301;50.832;4.080;2024-01-30T15:13:46;10.30;1.00
20284;DHT22;10301;50.832;4.080;2024-01-30T15:16:12;10.30;1.00
20284;DHT22;10301;50.832;4.080;2024-01-30T15:18:37;10.30;1.00
20284;DHT22;10301;50.832;4.080;2024-01-30T15:21:03;10.30;1.00
20284;DHT22;10301;50.832;4.080;2024-01-30T15:23:29;10.30;1.00
20284;DHT22;10301;50.832;4.080;2024-01-30T15:25:54;10.50;1.00
20284;DHT22;10301;50.832;4.080;2024-01-30T15:28:33;10.60;1.00
20284;DHT22;10301;50.832;4.080;2024-01-30T15:31:00;10.70;1.00